createdAt,value
2023-04-16T00:00:52.517Z,89.68
2023-04-16T00:05:22.738Z,89.71
2023-04-16T00:09:40.492Z,89.60
2023-04-16T00:13:58.028Z,89.45
2023-04-16T00:18:15.846Z,89.47
2023-04-16T00:22:33.384Z,89.59
2023-04-16T00:26:51.408Z,89.38
2023-04-16T00:31:08.854Z,89.16
2023-04-16T00:35:27.397Z,89.28
2023-04-16T00:39:44.891Z,89.31
2023-04-16T00:44:02.590Z,89.20
2023-04-16T00:48:21.252Z,89.31
2023-04-16T00:52:39.097Z,89.26
2023-04-16T00:56:58.680Z,89.29
2023-04-16T01:01:16.483Z,89.38
2023-04-16T01:05:34.255Z,89.71
2023-04-16T01:09:51.799Z,89.88
2023-04-16T01:14:09.468Z,90.13
2023-04-16T01:18:27.170Z,90.16
2023-04-16T01:22:44.844Z,90.10
2023-04-16T01:27:02.392Z,90.15
2023-04-16T01:31:20.094Z,90.15
2023-04-16T01:35:38.275Z,90.17
2023-04-16T01:39:56.215Z,90.27
2023-04-16T01:44:13.858Z,90.39
2023-04-16T01:48:31.673Z,90.56
2023-04-16T01:52:49.399Z,90.63
2023-04-16T01:57:07.068Z,90.75
2023-04-16T02:01:24.852Z,90.76
2023-04-16T02:05:42.629Z,90.85
2023-04-16T02:10:00.207Z,90.83
2023-04-16T02:14:18.132Z,90.72
2023-04-16T02:18:35.629Z,90.72
2023-04-16T02:22:53.284Z,90.69
2023-04-16T02:27:12.299Z,90.46
2023-04-16T02:31:30.806Z,90.33
2023-04-16T02:35:48.958Z,90.33
2023-04-16T02:40:07.549Z,90.35
2023-04-16T02:44:26.048Z,90.43
2023-04-16T02:48:43.527Z,90.53
2023-04-16T02:53:01.288Z,90.62
2023-04-16T02:57:18.916Z,90.63
2023-04-16T03:01:36.457Z,90.53
2023-04-16T03:05:54.392Z,90.71
2023-04-16T03:10:12.510Z,90.87
2023-04-16T03:14:31.528Z,90.63
2023-04-16T03:18:49.673Z,90.33
2023-04-16T03:23:07.264Z,90.35
2023-04-16T03:27:24.939Z,90.96
2023-04-16T03:31:42.638Z,91.06
2023-04-16T03:36:00.651Z,91.03
2023-04-16T03:40:18.581Z,91.19
2023-04-16T03:44:36.358Z,91.09
2023-04-16T03:48:54.069Z,90.76
2023-04-16T03:53:11.564Z,90.89
2023-04-16T03:57:29.393Z,90.66
2023-04-16T04:01:47.091Z,90.52
2023-04-16T04:06:09.176Z,90.46
2023-04-16T04:10:26.852Z,90.68
2023-04-16T04:14:44.513Z,90.32
2023-04-16T04:19:02.132Z,90.11
2023-04-16T04:23:19.836Z,89.95
2023-04-16T04:27:37.365Z,89.94
2023-04-16T04:31:55.734Z,90.06
2023-04-16T04:36:13.348Z,89.64
2023-04-16T04:40:31.107Z,89.36
2023-04-16T04:44:49.028Z,89.46
2023-04-16T04:49:06.980Z,89.19
2023-04-16T04:53:24.681Z,89.45
2023-04-16T04:57:42.880Z,89.09
2023-04-16T05:02:00.980Z,89.25
2023-04-16T05:06:18.875Z,88.78
2023-04-16T05:10:36.640Z,89.04
2023-04-16T05:14:54.248Z,89.04
2023-04-16T05:19:12.019Z,88.85
2023-04-16T05:23:30.227Z,88.87
2023-04-16T05:27:47.713Z,89.06
2023-04-16T05:32:05.668Z,89.31
2023-04-16T05:36:23.164Z,89.05
2023-04-16T05:40:40.911Z,89.07
2023-04-16T05:44:58.414Z,88.16
2023-04-16T05:49:19.027Z,87.80
2023-04-16T05:53:36.723Z,86.64
2023-04-16T05:57:54.565Z,85.51
2023-04-16T06:02:12.397Z,86.03
2023-04-16T06:06:30.123Z,85.60
2023-04-16T06:10:47.856Z,84.38
2023-04-16T06:15:06.691Z,83.52
2023-04-16T06:19:24.196Z,82.90
2023-04-16T06:23:41.970Z,81.85
2023-04-16T06:27:59.557Z,82.29
2023-04-16T06:32:17.849Z,82.40
2023-04-16T06:36:37.727Z,80.81
2023-04-16T06:40:55.567Z,81.15
2023-04-16T06:45:13.720Z,80.67
2023-04-16T06:49:31.459Z,80.56
2023-04-16T06:53:49.732Z,80.61
2023-04-16T06:58:07.450Z,80.29
2023-04-16T07:02:25.384Z,79.85
2023-04-16T07:06:43.242Z,78.41
2023-04-16T07:11:01.269Z,78.99
2023-04-16T07:15:19.008Z,77.11
2023-04-16T07:19:37.412Z,78.10
2023-04-16T07:23:55.188Z,78.96
2023-04-16T07:28:13.184Z,78.12
2023-04-16T07:32:31.095Z,77.00
2023-04-16T07:36:49.125Z,78.18
2023-04-16T07:41:06.906Z,77.76
2023-04-16T07:45:24.945Z,76.87
2023-04-16T07:49:42.779Z,76.38
2023-04-16T07:54:00.289Z,76.87
2023-04-16T07:58:17.916Z,77.37
2023-04-16T08:02:35.728Z,77.69
2023-04-16T08:06:54.697Z,77.31
2023-04-16T08:11:12.291Z,77.25
2023-04-16T08:15:30.138Z,76.29
2023-04-16T08:19:47.787Z,74.88
2023-04-16T08:24:05.877Z,74.01
2023-04-16T08:28:23.421Z,73.39
2023-04-16T08:32:41.274Z,72.10
2023-04-16T08:36:58.730Z,70.48
2023-04-16T08:41:16.678Z,69.12
2023-04-16T08:45:35.684Z,70.08
2023-04-16T08:49:58.464Z,66.37
2023-04-16T08:54:43.594Z,61.52
2023-04-16T08:59:05.581Z,59.84
2023-04-16T09:03:23.359Z,56.99
2023-04-16T09:07:41.925Z,59.30
2023-04-16T09:12:00.318Z,59.64
2023-04-16T09:16:18.752Z,60.69
2023-04-16T09:20:36.527Z,56.96
2023-04-16T09:24:54.160Z,52.45
2023-04-16T09:29:11.994Z,51.10
2023-04-16T09:33:29.803Z,52.91
2023-04-16T09:37:58.172Z,50.24
2023-04-16T09:42:16.003Z,46.62
2023-04-16T09:46:35.475Z,45.01
2023-04-16T09:50:53.183Z,45.66
2023-04-16T09:55:13.734Z,50.87
2023-04-16T09:59:34.404Z,49.22
2023-04-16T10:03:56.013Z,43.57
2023-04-16T10:08:14.876Z,47.38
2023-04-16T10:12:35.802Z,50.94
2023-04-16T10:16:54.280Z,51.87
2023-04-16T10:21:13.055Z,52.43
2023-04-16T10:25:32.504Z,42.76
2023-04-16T10:29:50.911Z,44.24
2023-04-16T10:34:10.400Z,51.13
2023-04-16T10:38:28.753Z,53.85
2023-04-16T10:42:58.671Z,42.93
2023-04-16T10:47:16.302Z,46.67
2023-04-16T10:51:36.578Z,46.74
2023-04-16T10:56:13.086Z,42.24
2023-04-16T11:00:30.975Z,44.37
2023-04-16T11:04:50.031Z,48.97
2023-04-16T11:09:26.501Z,45.73
2023-04-16T11:13:48.889Z,47.37
2023-04-16T11:18:07.473Z,48.51
2023-04-16T11:22:25.391Z,48.08
2023-04-16T11:26:43.034Z,41.27
2023-04-16T11:31:09.402Z,35.46
2023-04-16T11:35:27.562Z,29.55
2023-04-16T11:39:52.951Z,30.04
2023-04-16T11:44:28.344Z,29.01
2023-04-16T11:48:48.328Z,27.24
2023-04-16T11:53:06.790Z,28.08
2023-04-16T11:57:33.235Z,22.14
2023-04-16T12:01:56.449Z,24.07
2023-04-16T12:06:14.303Z,26.73
2023-04-16T12:10:37.944Z,22.29
2023-04-16T12:14:57.852Z,23.42
2023-04-16T12:19:15.825Z,25.92
2023-04-16T12:23:34.607Z,30.95
2023-04-16T12:27:56.101Z,32.58
2023-04-16T12:32:23.701Z,32.38
2023-04-16T12:36:43.095Z,35.64
2023-04-16T12:41:02.662Z,38.03
2023-04-16T12:45:20.341Z,37.96
2023-04-16T12:49:38.112Z,35.40
2023-04-16T12:53:56.046Z,23.08
2023-04-16T12:58:13.686Z,18.39
2023-04-16T13:02:32.600Z,18.62
2023-04-16T13:06:51.566Z,27.18
2023-04-16T13:11:09.239Z,35.51
2023-04-16T13:15:27.017Z,37.92
2023-04-16T13:19:44.741Z,32.75
2023-04-16T13:24:02.611Z,24.04
2023-04-16T13:28:20.155Z,20.86
2023-04-16T13:32:37.986Z,20.43
2023-04-16T13:36:55.569Z,21.96
2023-04-16T13:41:13.437Z,22.23
2023-04-16T13:45:31.077Z,19.87
2023-04-16T13:49:49.586Z,20.57
2023-04-16T13:54:07.091Z,23.47
2023-04-16T13:58:25.052Z,25.18
2023-04-16T14:02:43.484Z,21.98
2023-04-16T14:07:01.440Z,20.95
2023-04-16T14:11:19.117Z,23.51
2023-04-16T14:15:36.679Z,29.68
2023-04-16T14:19:54.399Z,33.86
2023-04-16T14:24:11.927Z,35.71
2023-04-16T14:28:29.639Z,28.96
2023-04-16T14:32:47.267Z,37.88
2023-04-16T14:37:06.045Z,39.63
2023-04-16T14:41:23.669Z,39.95
2023-04-16T14:45:42.072Z,39.88
2023-04-16T14:50:00.040Z,40.83
2023-04-16T14:54:17.700Z,39.82
2023-04-16T14:58:38.622Z,44.35
2023-04-16T15:02:57.086Z,42.42
2023-04-16T15:07:14.859Z,36.63
2023-04-16T15:11:32.489Z,39.72
2023-04-16T15:15:50.242Z,42.17
2023-04-16T15:20:09.516Z,44.08
2023-04-16T15:24:27.053Z,47.31
2023-04-16T15:28:44.744Z,46.83
2023-04-16T15:33:02.393Z,48.19
2023-04-16T15:37:20.174Z,48.58
2023-04-16T15:41:50.229Z,49.23
2023-04-16T15:46:17.450Z,49.74
2023-04-16T15:50:35.407Z,49.68
2023-04-16T15:54:53.217Z,49.47
2023-04-16T15:59:10.913Z,49.98
2023-04-16T16:03:29.044Z,49.20
2023-04-16T16:07:47.018Z,49.49
2023-04-16T16:12:04.762Z,47.95
2023-04-16T16:16:22.379Z,45.11
2023-04-16T16:20:40.934Z,44.98
2023-04-16T16:24:58.698Z,45.60
2023-04-16T16:29:16.531Z,46.99
2023-04-16T16:33:34.397Z,47.24
2023-04-16T16:37:57.626Z,48.25
2023-04-16T16:42:18.989Z,48.89
2023-04-16T16:46:37.197Z,51.19
2023-04-16T16:50:54.999Z,53.52
2023-04-16T16:55:12.884Z,55.83
2023-04-16T16:59:30.452Z,57.71
2023-04-16T17:03:48.171Z,59.28
2023-04-16T17:08:06.792Z,60.66
2023-04-16T17:12:25.412Z,61.81
2023-04-16T17:16:43.243Z,63.77
2023-04-16T17:21:00.745Z,64.67
2023-04-16T17:25:18.513Z,66.34
2023-04-16T17:29:36.344Z,68.44
2023-04-16T17:33:53.986Z,70.03
2023-04-16T17:38:11.991Z,71.13
2023-04-16T17:42:29.724Z,72.03
2023-04-16T17:46:47.597Z,72.43
2023-04-16T17:51:17.648Z,72.91
2023-04-16T17:55:36.078Z,73.49
2023-04-16T17:59:53.761Z,74.05
2023-04-16T18:04:12.036Z,74.60
2023-04-16T18:08:30.132Z,75.76
2023-04-16T18:12:48.178Z,76.87
2023-04-16T18:17:06.603Z,77.52
2023-04-16T18:21:24.739Z,78.73
2023-04-16T18:25:42.300Z,78.92
2023-04-16T18:30:00.135Z,79.33
2023-04-16T18:34:17.793Z,79.82
2023-04-16T18:38:36.989Z,80.10
2023-04-16T18:42:59.169Z,80.40
2023-04-16T18:47:17.123Z,80.74
2023-04-16T18:51:34.763Z,81.37
2023-04-16T18:55:55.744Z,81.65
2023-04-16T19:00:14.017Z,82.01
2023-04-16T19:04:32.017Z,82.52
2023-04-16T19:08:49.681Z,82.74
2023-04-16T19:13:07.462Z,82.74
2023-04-16T19:17:25.050Z,82.90
2023-04-16T19:21:42.770Z,83.27
2023-04-16T19:26:01.732Z,83.70
2023-04-16T19:30:19.534Z,84.05
2023-04-16T19:34:37.159Z,84.26
2023-04-16T19:38:54.862Z,85.28
2023-04-16T19:43:13.114Z,85.09
2023-04-16T19:47:30.612Z,84.64
2023-04-16T19:51:48.350Z,85.05
2023-04-16T19:56:06.099Z,85.49
2023-04-16T20:00:23.734Z,85.20
2023-04-16T20:04:41.496Z,85.85
2023-04-16T20:08:59.085Z,85.78
2023-04-16T20:13:18.613Z,85.95
2023-04-16T20:17:36.387Z,86.05
2023-04-16T20:21:54.233Z,86.31
2023-04-16T20:26:18.993Z,86.42
2023-04-16T20:30:39.633Z,86.52
2023-04-16T20:34:57.334Z,86.64
2023-04-16T20:39:14.961Z,86.80
2023-04-16T20:43:38.753Z,87.12
2023-04-16T20:47:56.541Z,87.37
2023-04-16T20:52:14.802Z,87.24
2023-04-16T20:56:32.344Z,87.60
2023-04-16T21:00:51.756Z,87.97
2023-04-16T21:05:14.310Z,87.73
2023-04-16T21:09:32.176Z,88.00
2023-04-16T21:13:49.730Z,87.78
2023-04-16T21:18:08.046Z,87.74
2023-04-16T21:22:25.622Z,87.88
2023-04-16T21:26:43.325Z,87.96
2023-04-16T21:31:00.924Z,88.24
2023-04-16T21:35:18.753Z,88.89
2023-04-16T21:39:36.473Z,88.29
2023-04-16T21:43:54.827Z,88.27
2023-04-16T21:48:12.538Z,88.12
2023-04-16T21:52:30.790Z,88.23
2023-04-16T21:56:48.757Z,88.31
2023-04-16T22:01:07.275Z,88.36
2023-04-16T22:05:27.117Z,88.74
2023-04-16T22:09:44.657Z,88.83
2023-04-16T22:14:03.366Z,88.92
2023-04-16T22:18:21.045Z,88.91
2023-04-16T22:22:39.730Z,89.09
2023-04-16T22:26:57.276Z,89.07
2023-04-16T22:31:14.973Z,88.84
2023-04-16T22:35:33.241Z,88.93
2023-04-16T22:39:51.262Z,88.68
2023-04-16T22:44:08.928Z,88.33
2023-04-16T22:48:26.616Z,88.08
2023-04-16T22:52:44.199Z,87.82
2023-04-16T22:57:02.455Z,88.13
2023-04-16T23:01:19.988Z,88.12
2023-04-16T23:05:37.941Z,88.04
2023-04-16T23:09:55.733Z,88.03
2023-04-16T23:14:16.218Z,87.53
2023-04-16T23:18:34.437Z,87.58
2023-04-16T23:22:53.158Z,87.49
2023-04-16T23:27:10.919Z,87.07
2023-04-16T23:31:28.633Z,86.95
2023-04-16T23:35:47.769Z,86.94
2023-04-16T23:40:09.061Z,87.28
2023-04-16T23:44:28.381Z,87.42
2023-04-16T23:48:45.956Z,87.35
2023-04-16T23:53:03.656Z,87.12
2023-04-16T23:57:21.223Z,86.74
